createdAt,value
2022-09-06T00:00:41.457Z,87.21
2022-09-06T00:01:41.471Z,87.72
2022-09-06T00:02:42.611Z,87.82
2022-09-06T00:03:41.536Z,87.82
2022-09-06T00:04:41.431Z,88.02
2022-09-06T00:05:41.410Z,88.67
2022-09-06T00:06:41.410Z,88.67
2022-09-06T00:07:41.418Z,89.17
2022-09-06T00:08:41.449Z,88.87
2022-09-06T00:09:41.370Z,89.28
2022-09-06T00:10:41.378Z,89.17
2022-09-06T00:11:41.398Z,89.17
2022-09-06T00:12:41.373Z,88.77
2022-09-06T00:13:41.368Z,88.67
2022-09-06T00:14:41.362Z,89.17
2022-09-06T00:15:41.442Z,88.67
2022-09-06T00:16:41.348Z,88.57
2022-09-06T00:17:41.321Z,88.77
2022-09-06T00:18:41.318Z,88.51
2022-09-06T00:19:41.296Z,89.52
2022-09-06T00:20:41.304Z,89.22
2022-09-06T00:21:41.324Z,89.92
2022-09-06T00:22:41.275Z,90.03
2022-09-06T00:23:41.298Z,90.53
2022-09-06T00:24:41.273Z,90.03
2022-09-06T00:25:41.255Z,90.23
2022-09-06T00:26:41.267Z,90.12
2022-09-06T00:27:41.329Z,90.03
2022-09-06T00:28:41.286Z,89.92
2022-09-06T00:29:41.226Z,90.03
2022-09-06T00:30:41.287Z,91.03
2022-09-06T00:31:41.218Z,90.94
2022-09-06T00:32:41.254Z,91.14
2022-09-06T00:33:41.228Z,91.03
2022-09-06T00:34:41.227Z,91.49
2022-09-06T00:35:41.211Z,90.88
2022-09-06T00:36:41.220Z,91.08
2022-09-06T00:37:41.137Z,91.08
2022-09-06T00:38:41.172Z,91.08
2022-09-06T00:39:41.185Z,90.58
2022-09-06T00:40:41.147Z,90.37
2022-09-06T00:41:41.141Z,90.58
2022-09-06T00:42:41.133Z,91.08
2022-09-06T00:43:41.143Z,91.18
2022-09-06T00:44:41.099Z,91.08
2022-09-06T00:45:41.133Z,91.18
2022-09-06T00:46:41.127Z,91.38
2022-09-06T00:47:41.107Z,91.58
2022-09-06T00:48:41.072Z,91.69
2022-09-06T00:49:41.203Z,91.69
2022-09-06T00:50:41.749Z,91.69
2022-09-06T00:51:41.051Z,91.89
2022-09-06T00:52:41.043Z,91.78
2022-09-06T00:53:41.021Z,91.69
2022-09-06T00:54:41.054Z,91.99
2022-09-06T00:55:41.057Z,91.99
2022-09-06T00:56:41.041Z,92.09
2022-09-06T00:57:41.025Z,91.99
2022-09-06T00:58:41.008Z,91.99
2022-09-06T00:59:41.036Z,91.89
2022-09-06T01:00:41.024Z,91.78
2022-09-06T01:01:42.036Z,91.99
2022-09-06T01:02:41.162Z,92.09
2022-09-06T01:03:40.971Z,91.89
2022-09-06T01:04:41.790Z,91.99
2022-09-06T01:05:41.747Z,91.99
2022-09-06T01:06:40.920Z,91.78
2022-09-06T01:07:40.929Z,92.09
2022-09-06T01:08:41.088Z,92.29
2022-09-06T01:09:40.954Z,92.19
2022-09-06T01:10:40.936Z,92.90
2022-09-06T01:11:40.899Z,92.69
2022-09-06T01:12:40.920Z,91.73
2022-09-06T01:13:40.902Z,92.44
2022-09-06T01:14:40.951Z,92.44
2022-09-06T01:15:40.967Z,92.13
2022-09-06T01:16:40.904Z,92.33
2022-09-06T01:17:40.907Z,93.60
2022-09-06T01:18:40.861Z,92.64
2022-09-06T01:19:40.858Z,93.60
2022-09-06T01:20:40.894Z,93.60
2022-09-06T01:21:40.852Z,93.36
2022-09-06T01:22:40.816Z,92.85
2022-09-06T01:23:40.806Z,93.26
2022-09-06T01:24:40.806Z,92.76
2022-09-06T01:25:40.845Z,92.50
2022-09-06T01:26:40.878Z,92.50
2022-09-06T01:27:40.808Z,92.91
2022-09-06T01:28:40.787Z,92.81
2022-09-06T01:29:40.782Z,92.91
2022-09-06T01:30:40.860Z,92.50
2022-09-06T01:31:40.758Z,92.21
2022-09-06T01:32:40.734Z,92.81
2022-09-06T01:33:40.728Z,92.21
2022-09-06T01:34:40.715Z,92.57
2022-09-06T01:35:40.748Z,92.26
2022-09-06T01:36:54.398Z,92.57
2022-09-06T01:37:42.740Z,92.26
2022-09-06T01:38:40.783Z,92.46
2022-09-06T01:39:40.773Z,92.06
2022-09-06T01:40:40.680Z,92.16
2022-09-06T01:41:40.732Z,92.12
2022-09-06T01:42:40.688Z,92.26
2022-09-06T01:43:40.688Z,92.02
2022-09-06T01:44:40.679Z,91.86
2022-09-06T02:03:07.984Z,92.60
2022-09-06T02:04:08.114Z,92.64
2022-09-06T02:05:09.164Z,92.74
2022-09-06T02:06:09.121Z,92.74
2022-09-06T02:07:09.706Z,92.29
2022-09-06T02:08:09.091Z,92.49
2022-09-06T02:09:09.092Z,93.04
2022-09-06T02:10:09.711Z,92.84
2022-09-06T02:11:09.125Z,92.84
2022-09-06T02:12:09.138Z,93.24
2022-09-06T02:13:09.179Z,93.35
2022-09-06T02:14:09.065Z,93.75
2022-09-06T02:15:09.071Z,93.24
2022-09-06T02:16:09.037Z,93.55
2022-09-06T02:17:09.138Z,93.15
2022-09-06T02:18:09.025Z,93.44
2022-09-06T02:19:09.038Z,93.59
2022-09-06T02:20:09.623Z,93.35
2022-09-06T02:21:09.128Z,93.35
2022-09-06T02:22:09.013Z,94.15
2022-09-06T02:23:09.002Z,94.20
2022-09-06T02:24:43.157Z,94.06
2022-09-06T02:25:09.027Z,93.55
2022-09-06T02:26:09.077Z,93.44
2022-09-06T02:27:08.968Z,93.59
2022-09-06T02:28:08.995Z,94.26
2022-09-06T02:29:09.022Z,94.26
2022-09-06T02:30:09.011Z,94.26
2022-09-06T02:31:09.104Z,94.20
2022-09-06T02:32:08.970Z,94.15
2022-09-06T02:33:08.952Z,93.75
2022-09-06T02:34:08.961Z,93.55
2022-09-06T02:35:08.978Z,94.15
2022-09-06T02:36:09.033Z,94.26
2022-09-06T02:37:08.912Z,94.26
2022-09-06T02:38:08.904Z,93.44
2022-09-06T02:39:09.914Z,93.79
2022-09-06T02:40:08.965Z,93.70
2022-09-06T02:41:08.906Z,94.00
2022-09-06T02:42:08.928Z,94.26
2022-09-06T02:43:08.930Z,94.00
2022-09-06T02:44:08.879Z,93.90
2022-09-06T02:45:08.946Z,94.30
2022-09-06T02:46:08.965Z,94.10
2022-09-06T02:47:08.962Z,94.30
2022-09-06T02:48:08.869Z,94.20
2022-09-06T02:49:08.882Z,94.10
2022-09-06T02:50:08.860Z,94.20
2022-09-06T02:51:08.794Z,94.20
2022-09-06T02:52:08.827Z,94.60
2022-09-06T02:53:08.808Z,95.01
2022-09-06T02:54:08.812Z,94.81
2022-09-06T02:55:08.801Z,94.00
2022-09-06T02:56:08.773Z,94.65
2022-09-06T02:57:08.811Z,95.31
2022-09-06T02:58:08.763Z,94.50
2022-09-06T02:59:08.789Z,95.31
2022-09-06T03:00:08.793Z,94.40
2022-09-06T03:01:08.771Z,94.20
2022-09-06T03:02:08.769Z,94.00
2022-09-06T03:03:08.752Z,94.50
2022-09-06T03:04:08.750Z,94.20
2022-09-06T03:05:08.750Z,94.40
2022-09-06T03:06:08.682Z,94.45
2022-09-06T03:07:08.670Z,94.30
2022-09-06T03:08:08.686Z,94.50
2022-09-06T03:09:08.767Z,94.20
2022-09-06T03:10:08.701Z,94.40
2022-09-06T03:11:08.660Z,94.55
2022-09-06T03:12:08.624Z,94.45
2022-09-06T03:13:08.611Z,94.40
2022-09-06T03:14:08.650Z,94.60
2022-09-06T03:15:08.690Z,95.11
2022-09-06T03:16:08.637Z,95.36
2022-09-06T03:17:08.649Z,95.11
2022-09-06T03:18:08.619Z,94.40
2022-09-06T03:19:08.619Z,94.40
2022-09-06T03:20:08.601Z,95.21
2022-09-06T03:21:08.580Z,94.50
2022-09-06T03:22:08.622Z,94.20
2022-09-06T03:23:08.591Z,94.30
2022-09-06T03:24:08.555Z,94.20
2022-09-06T03:25:08.519Z,94.00
2022-09-06T03:26:08.511Z,94.00
2022-09-06T03:27:08.542Z,94.26
2022-09-06T03:28:08.536Z,93.79
2022-09-06T03:29:08.531Z,93.90
2022-09-06T03:30:08.527Z,94.20
2022-09-06T03:31:08.612Z,94.30
2022-09-06T03:32:08.472Z,94.00
2022-09-06T03:33:08.525Z,94.71
2022-09-06T03:34:11.133Z,94.60
2022-09-06T03:35:09.468Z,94.30
2022-09-06T03:36:08.485Z,94.60
2022-09-06T03:37:08.446Z,94.40
2022-09-06T03:38:09.469Z,95.06
2022-09-06T03:39:08.456Z,94.71
2022-09-06T03:40:08.480Z,94.91
2022-09-06T03:41:08.408Z,94.65
2022-09-06T03:42:08.457Z,95.51
2022-09-06T03:43:08.432Z,95.31
2022-09-06T03:44:08.424Z,95.01
2022-09-06T03:45:08.414Z,95.56
2022-09-06T03:46:08.401Z,95.31
2022-09-06T03:47:08.358Z,95.36
2022-09-06T04:02:35.050Z,96.42
2022-09-06T04:03:34.969Z,95.86
2022-09-06T04:04:34.972Z,96.22
2022-09-06T04:05:34.957Z,96.51
2022-09-06T04:06:34.972Z,96.17
2022-09-06T04:07:34.997Z,96.31
2022-09-06T04:08:36.081Z,96.07
2022-09-06T04:09:36.103Z,96.47
2022-09-06T04:10:36.070Z,96.78
2022-09-06T04:11:36.126Z,96.01
2022-09-06T04:12:36.095Z,95.30
2022-09-06T04:13:36.094Z,94.34
2022-09-06T04:14:36.066Z,94.54
2022-09-06T04:15:36.051Z,94.74
2022-09-06T04:16:36.081Z,94.64
2022-09-06T04:17:36.079Z,95.35
2022-09-06T04:18:36.018Z,95.35
2022-09-06T04:19:36.023Z,94.74
2022-09-06T04:20:36.030Z,94.48
2022-09-06T04:21:36.025Z,94.38
2022-09-06T04:22:35.989Z,94.68
2022-09-06T04:23:39.783Z,94.68
2022-09-06T04:24:36.953Z,94.68
2022-09-06T04:25:36.028Z,94.38
2022-09-06T04:26:36.725Z,94.58
2022-09-06T04:27:36.533Z,94.58
2022-09-06T04:28:35.956Z,94.58
2022-09-06T04:29:35.961Z,95.29
2022-09-06T04:30:36.063Z,95.59
2022-09-06T04:31:35.929Z,95.79
2022-09-06T04:32:35.886Z,95.79
2022-09-06T04:33:35.920Z,96.00
2022-09-06T04:34:35.895Z,95.59
2022-09-06T04:35:35.913Z,95.90
2022-09-06T04:36:35.893Z,95.59
2022-09-06T04:37:35.900Z,95.86
2022-09-06T04:38:35.904Z,95.39
2022-09-06T04:39:35.953Z,95.35
2022-09-06T04:40:35.954Z,95.45
2022-09-06T04:41:35.913Z,95.45
2022-09-06T04:42:35.862Z,95.25
2022-09-06T04:43:35.825Z,95.45
2022-09-06T04:44:35.910Z,94.94
2022-09-06T04:45:35.944Z,95.14
2022-09-06T04:46:35.824Z,95.65
2022-09-06T04:47:35.798Z,95.00
2022-09-06T04:48:35.819Z,95.25
2022-09-06T04:49:35.799Z,94.39
2022-09-06T04:50:35.814Z,94.49
2022-09-06T04:51:35.856Z,94.29
2022-09-06T04:52:35.800Z,94.59
2022-09-06T04:53:35.806Z,94.39
2022-09-06T04:54:35.826Z,94.39
2022-09-06T04:55:35.841Z,94.43
2022-09-06T04:56:35.859Z,94.49
2022-09-06T04:57:38.183Z,94.29
2022-09-06T04:58:36.764Z,94.49
2022-09-06T04:59:35.789Z,94.45
2022-09-06T05:00:35.692Z,94.19
2022-09-06T05:01:35.832Z,94.55
2022-09-06T05:02:35.794Z,94.55
2022-09-06T05:03:35.817Z,94.35
2022-09-06T05:04:35.724Z,94.55
2022-09-06T05:05:35.806Z,93.94
2022-09-06T05:06:35.731Z,94.35
2022-09-06T05:07:35.805Z,94.04
2022-09-06T05:08:35.700Z,94.24
2022-09-06T05:09:35.788Z,93.59
2022-09-06T05:10:35.749Z,94.14
2022-09-06T05:11:35.727Z,94.10
2022-09-06T05:12:35.682Z,94.30
2022-09-06T05:13:35.625Z,94.30
2022-09-06T05:14:35.649Z,93.70
2022-09-06T05:15:35.661Z,93.08
2022-09-06T05:16:35.658Z,92.79
2022-09-06T05:17:35.621Z,93.08
2022-09-06T05:18:35.633Z,93.29
2022-09-06T05:19:35.639Z,94.00
2022-09-06T05:20:35.560Z,94.35
2022-09-06T05:21:35.594Z,94.40
2022-09-06T05:22:35.555Z,94.20
2022-09-06T05:23:36.227Z,94.30
2022-09-06T05:24:36.610Z,94.00
2022-09-06T05:25:35.547Z,94.50
2022-09-06T05:26:35.517Z,94.30
2022-09-06T05:27:35.528Z,94.20
2022-09-06T05:28:35.549Z,94.20
2022-09-06T05:29:35.545Z,94.06
2022-09-06T05:30:35.527Z,94.30
2022-09-06T05:31:35.591Z,94.30
2022-09-06T05:32:35.462Z,94.40
2022-09-06T05:33:35.511Z,94.24
2022-09-06T05:34:35.524Z,95.20
2022-09-06T05:35:35.536Z,95.46
2022-09-06T05:36:35.411Z,95.26
2022-09-06T05:37:35.431Z,95.46
2022-09-06T05:38:35.447Z,95.06
2022-09-06T05:39:35.483Z,95.15
2022-09-06T05:40:35.432Z,94.04
2022-09-06T05:41:35.442Z,94.20
2022-09-06T05:42:35.441Z,94.40
2022-09-06T05:43:36.733Z,94.15
2022-09-06T05:44:35.426Z,93.55
2022-09-06T05:45:35.415Z,93.65
2022-09-06T05:46:35.415Z,92.64
2022-09-06T05:47:35.407Z,92.84
2022-09-06T05:48:37.217Z,92.64
2022-09-06T05:49:36.342Z,92.49
2022-09-06T05:50:35.405Z,92.60
2022-09-06T05:51:36.246Z,92.05
2022-09-06T05:52:35.376Z,92.55
2022-09-06T05:53:35.338Z,91.64
2022-09-06T05:54:35.443Z,92.25
2022-09-06T05:55:35.283Z,91.80
2022-09-06T05:56:35.383Z,91.64
2022-09-06T05:57:35.356Z,91.39
2022-09-06T05:58:35.277Z,91.90
2022-09-06T05:59:35.287Z,91.39
2022-09-06T06:00:35.320Z,91.19
2022-09-06T06:01:35.395Z,90.99
2022-09-06T06:02:35.327Z,90.89
2022-09-06T06:03:35.259Z,91.39
2022-09-06T06:04:35.213Z,91.80
2022-09-06T06:05:35.365Z,91.70
2022-09-06T06:06:35.240Z,91.39
2022-09-06T06:07:35.182Z,91.70
2022-09-06T06:08:35.211Z,91.76
2022-09-06T06:09:35.202Z,91.80
2022-09-06T06:10:38.443Z,91.70
2022-09-06T06:11:36.208Z,92.00
2022-09-06T06:12:35.180Z,91.60
2022-09-06T06:13:35.154Z,91.94
2022-09-06T06:14:35.214Z,92.00
2022-09-06T06:15:35.143Z,91.90
2022-09-06T06:16:35.153Z,92.21
2022-09-06T06:17:35.116Z,91.90
2022-09-06T06:18:35.110Z,91.30
2022-09-06T06:19:35.147Z,91.60
2022-09-06T06:20:35.134Z,91.60
2022-09-06T06:21:35.107Z,92.00
2022-09-06T06:22:35.093Z,92.81
2022-09-06T06:23:35.127Z,92.30
2022-09-06T06:24:35.038Z,92.21
2022-09-06T06:25:35.046Z,91.96
2022-09-06T06:26:35.058Z,91.96
2022-09-06T06:27:35.083Z,91.96
2022-09-06T06:28:35.046Z,91.76
2022-09-06T06:29:35.041Z,91.51
2022-09-06T06:30:35.039Z,91.06
2022-09-06T06:31:35.117Z,90.86
2022-09-06T06:32:35.011Z,90.66
2022-09-06T06:33:35.002Z,90.77
2022-09-06T06:34:34.973Z,91.77
2022-09-06T06:35:38.303Z,91.67
2022-09-06T06:36:37.060Z,91.47
2022-09-06T06:37:34.967Z,90.66
2022-09-06T06:38:34.950Z,90.97
2022-09-06T06:39:34.984Z,91.27
2022-09-06T06:40:34.983Z,91.13
2022-09-06T06:41:34.944Z,90.97
2022-09-06T06:43:09.157Z,91.67
2022-09-06T06:43:34.870Z,91.67
2022-09-06T06:44:34.899Z,91.37
2022-09-06T06:45:34.930Z,91.42
2022-09-06T06:46:34.884Z,91.33
2022-09-06T06:47:34.890Z,91.13
2022-09-06T06:48:34.872Z,90.82
2022-09-06T06:49:34.855Z,90.52
2022-09-06T06:50:34.855Z,90.28
2022-09-06T06:51:35.382Z,90.07
2022-09-06T06:52:34.849Z,89.26
2022-09-06T06:53:34.873Z,89.26
2022-09-06T06:54:34.857Z,89.26
2022-09-06T06:55:34.824Z,89.26
2022-09-06T06:56:34.869Z,88.82
2022-09-06T06:57:34.806Z,88.82
2022-09-06T06:58:34.804Z,88.32
2022-09-06T06:59:34.803Z,88.32
2022-09-06T07:00:34.855Z,87.47
2022-09-06T07:01:34.949Z,87.37
2022-09-06T07:02:34.766Z,87.27
2022-09-06T07:03:34.777Z,87.67
2022-09-06T07:04:34.788Z,87.17
2022-09-06T07:07:39.495Z,86.88
2022-09-06T07:08:34.735Z,86.08
2022-09-06T07:10:36.730Z,86.54
2022-09-06T07:11:34.697Z,85.64
2022-09-06T07:12:34.703Z,85.33
2022-09-06T07:13:34.674Z,85.53
2022-09-06T07:14:34.737Z,86.04
2022-09-06T07:15:34.679Z,86.24
2022-09-06T07:16:34.794Z,85.44
2022-09-06T07:17:34.686Z,86.24
2022-09-06T07:18:34.652Z,86.14
2022-09-06T07:22:35.628Z,88.05
2022-09-06T07:24:36.636Z,86.85
2022-09-06T07:26:08.708Z,87.19
2022-09-06T07:26:34.658Z,87.59
2022-09-06T07:27:50.463Z,88.41
2022-09-06T07:28:36.551Z,87.35
2022-09-06T07:29:34.584Z,87.65
2022-09-06T07:30:34.626Z,87.45
2022-09-06T07:32:36.553Z,87.51
2022-09-06T07:33:34.542Z,86.22
2022-09-06T07:34:35.515Z,85.08
2022-09-06T07:35:34.564Z,84.29
2022-09-06T07:36:34.504Z,82.49
2022-09-06T07:37:34.544Z,81.04
2022-09-06T07:38:34.527Z,79.77
2022-09-06T07:39:34.523Z,79.83
2022-09-06T07:40:34.531Z,79.63
2022-09-06T07:41:34.477Z,78.69
2022-09-06T07:42:36.413Z,78.79
2022-09-06T07:43:35.483Z,77.86
2022-09-06T07:44:34.461Z,77.99
2022-09-06T07:45:34.493Z,78.19
2022-09-06T07:46:35.518Z,78.59
2022-09-06T07:48:36.447Z,78.39
2022-09-06T07:49:34.963Z,78.89
2022-09-06T07:50:50.615Z,77.89
2022-09-06T07:51:36.425Z,77.59
2022-09-06T07:53:36.765Z,77.73
2022-09-06T07:54:34.495Z,78.59
2022-09-06T07:55:34.438Z,77.29
2022-09-06T07:56:34.411Z,77.33
2022-09-06T07:57:34.407Z,77.60
2022-09-06T07:58:34.408Z,78.91
2022-09-06T07:59:34.337Z,78.94
2022-09-06T08:00:34.492Z,79.44
2022-09-06T08:01:34.449Z,79.00
2022-09-06T08:02:34.388Z,78.63
2022-09-06T08:03:34.347Z,75.05
2022-09-06T08:04:34.312Z,73.02
2022-09-06T08:09:36.298Z,68.96
2022-09-06T08:10:34.306Z,66.35
2022-09-06T08:11:34.309Z,63.34
2022-09-06T08:12:34.276Z,65.85
2022-09-06T08:13:34.252Z,68.99
2022-09-06T08:14:34.255Z,70.12
2022-09-06T08:15:34.256Z,68.99
2022-09-06T08:16:34.264Z,67.07
2022-09-06T08:17:34.230Z,68.04
2022-09-06T08:18:34.210Z,67.14
2022-09-06T08:19:34.215Z,68.07
2022-09-06T08:20:34.210Z,68.90
2022-09-06T08:21:34.170Z,68.37
2022-09-06T08:22:35.406Z,68.86
2022-09-06T08:23:34.187Z,68.00
2022-09-06T08:24:35.102Z,68.23
2022-09-06T08:26:07.737Z,69.46
2022-09-06T08:26:34.283Z,70.69
2022-09-06T08:27:34.814Z,70.36
2022-09-06T08:28:34.667Z,70.16
2022-09-06T08:29:34.222Z,69.13
2022-09-06T08:30:34.182Z,68.73
2022-09-06T08:31:34.318Z,68.60
2022-09-06T08:32:34.276Z,67.86
2022-09-06T08:33:34.902Z,67.54
2022-09-06T08:34:34.109Z,66.94
2022-09-06T08:35:34.051Z,66.54
2022-09-06T08:36:34.147Z,66.84
2022-09-06T08:37:34.064Z,66.44
2022-09-06T08:38:34.539Z,66.21
2022-09-06T08:39:34.167Z,65.72
2022-09-06T08:40:34.076Z,65.31
2022-09-06T08:41:34.068Z,65.02
2022-09-06T08:42:34.120Z,65.72
2022-09-06T08:43:34.882Z,65.28
2022-09-06T08:45:36.092Z,64.66
2022-09-06T08:46:34.078Z,64.76
2022-09-06T08:47:34.070Z,63.05
2022-09-06T08:48:34.993Z,59.93
2022-09-06T08:49:34.666Z,57.97
2022-09-06T08:50:33.981Z,57.32
2022-09-06T08:51:38.387Z,56.53
2022-09-06T08:52:34.977Z,57.32
2022-09-06T08:53:33.953Z,56.08
2022-09-06T08:54:34.836Z,53.91
2022-09-06T08:55:35.876Z,51.86
2022-09-06T08:56:35.894Z,52.97
2022-09-06T08:57:38.240Z,51.86
2022-09-06T08:58:38.683Z,52.55
2022-09-06T08:59:33.967Z,52.80
2022-09-06T09:00:35.694Z,52.15
2022-09-06T09:01:34.041Z,51.10
2022-09-06T09:02:33.949Z,51.12
2022-09-06T09:03:33.890Z,50.22
2022-09-06T09:04:33.918Z,49.82
2022-09-06T09:05:33.831Z,49.51
2022-09-06T09:06:33.859Z,49.63
2022-09-06T09:07:33.834Z,48.82
2022-09-06T09:08:33.862Z,48.77
2022-09-06T09:09:33.917Z,48.43
2022-09-06T09:10:33.836Z,47.53
2022-09-06T09:11:33.871Z,48.14
2022-09-06T09:12:33.827Z,47.43
2022-09-06T09:13:34.896Z,46.70
2022-09-06T09:14:33.945Z,46.11
2022-09-06T09:15:39.575Z,46.09
2022-09-06T09:16:35.928Z,47.50
2022-09-06T09:17:33.868Z,47.60
2022-09-06T09:18:34.410Z,47.28
2022-09-06T09:19:33.846Z,45.58
2022-09-06T09:20:33.819Z,45.65
2022-09-06T09:21:33.741Z,46.00
2022-09-06T09:22:33.819Z,47.19
2022-09-06T09:23:33.718Z,47.02
2022-09-06T09:24:33.781Z,46.01
2022-09-06T09:25:33.707Z,46.29
2022-09-06T09:26:34.725Z,47.11
2022-09-06T09:27:33.712Z,46.94
2022-09-06T09:28:33.717Z,48.72
2022-09-06T09:29:36.409Z,49.63
2022-09-06T09:30:50.279Z,49.07
2022-09-06T09:31:35.803Z,48.63
2022-09-06T09:32:33.719Z,47.24
2022-09-06T09:33:33.778Z,47.50
2022-09-06T09:34:33.873Z,48.55
2022-09-06T09:35:34.546Z,46.40
2022-09-06T09:36:33.667Z,46.18
2022-09-06T09:37:51.062Z,46.72
2022-09-06T09:38:35.633Z,47.25
2022-09-06T09:39:33.749Z,48.55
2022-09-06T09:40:33.664Z,49.31
2022-09-06T09:41:33.651Z,49.55
2022-09-06T09:42:33.606Z,48.72
2022-09-06T09:43:33.651Z,49.46
2022-09-06T09:44:33.664Z,50.19
2022-09-06T09:45:33.665Z,49.26
2022-09-06T09:46:33.671Z,49.46
2022-09-06T09:47:33.608Z,49.53
2022-09-06T09:48:33.576Z,48.86
2022-09-06T09:49:33.586Z,49.04
2022-09-06T09:50:33.561Z,48.99
2022-09-06T09:51:33.621Z,49.16
2022-09-06T09:52:33.568Z,49.41
2022-09-06T09:53:33.642Z,48.55
2022-09-06T09:54:33.532Z,47.40
2022-09-06T09:55:33.593Z,47.20
2022-09-06T09:56:33.563Z,48.41
2022-09-06T09:57:33.502Z,47.50
2022-09-06T09:58:33.598Z,47.52
2022-09-06T09:59:33.499Z,47.42
2022-09-06T10:00:33.565Z,46.84
2022-09-06T10:01:33.502Z,47.96
2022-09-06T10:02:33.485Z,49.08
2022-09-06T10:03:34.145Z,49.87
2022-09-06T10:04:48.770Z,49.82
2022-09-06T10:05:35.501Z,51.42
2022-09-06T10:07:35.438Z,50.19
2022-09-06T10:08:33.450Z,49.60
2022-09-06T10:09:33.427Z,49.04
2022-09-06T10:10:33.404Z,48.21
2022-09-06T10:11:33.482Z,48.57
2022-09-06T10:12:33.708Z,49.55
2022-09-06T10:13:33.450Z,49.53
2022-09-06T10:14:33.402Z,48.90
2022-09-06T10:15:33.451Z,47.38
2022-09-06T10:16:33.439Z,47.38
2022-09-06T10:17:33.457Z,48.52
2022-09-06T10:18:33.426Z,48.43
2022-09-06T10:19:33.398Z,47.55
2022-09-06T10:20:33.436Z,47.08
2022-09-06T10:21:33.351Z,46.84
2022-09-06T10:22:33.362Z,45.53
2022-09-06T10:24:35.343Z,46.16
2022-09-06T10:25:33.305Z,47.23
2022-09-06T10:26:33.922Z,49.14
2022-09-06T10:27:33.279Z,48.28
2022-09-06T10:28:34.308Z,47.36
2022-09-06T10:29:33.311Z,47.60
2022-09-06T10:30:33.335Z,47.65
2022-09-06T10:31:33.330Z,46.65
2022-09-06T10:32:33.289Z,45.97
2022-09-06T10:33:33.357Z,50.14
2022-09-06T10:34:33.294Z,51.57
2022-09-06T10:35:33.280Z,50.24
2022-09-06T10:36:33.319Z,49.99
2022-09-06T10:37:33.287Z,51.28
2022-09-06T10:38:33.290Z,50.71
2022-09-06T10:39:33.356Z,50.51
2022-09-06T10:40:33.241Z,49.65
2022-09-06T10:41:33.276Z,49.23
2022-09-06T10:42:33.237Z,47.71
2022-09-06T10:43:33.187Z,47.17
2022-09-06T10:44:34.237Z,45.47
2022-09-06T10:45:33.216Z,46.20
2022-09-06T10:46:33.360Z,47.71
2022-09-06T10:47:33.174Z,48.82
2022-09-06T10:48:33.225Z,48.84
2022-09-06T10:49:33.208Z,48.20
2022-09-06T10:50:33.186Z,47.36
2022-09-06T10:51:33.201Z,47.09
2022-09-06T10:52:33.212Z,47.42
2022-09-06T10:53:33.193Z,45.98
2022-09-06T10:54:33.212Z,45.04
2022-09-06T10:55:33.120Z,46.58
2022-09-06T10:56:33.117Z,46.75
2022-09-06T11:00:33.108Z,46.38
2022-09-06T11:01:33.140Z,44.94
2022-09-06T11:02:33.455Z,44.51
2022-09-06T11:06:34.045Z,41.88
2022-09-06T11:07:33.066Z,42.17
2022-09-06T11:08:48.659Z,42.76
2022-09-06T11:09:35.025Z,42.66
2022-09-06T11:10:32.999Z,42.44
2022-09-06T11:11:33.018Z,42.09
2022-09-06T11:12:33.013Z,42.90
2022-09-06T11:13:32.988Z,44.65
2022-09-06T11:14:32.964Z,44.74
2022-09-06T11:15:33.141Z,45.43
2022-09-06T11:16:32.977Z,44.21
2022-09-06T11:17:33.007Z,44.02
2022-09-06T11:18:32.970Z,44.41
2022-09-06T11:19:32.988Z,43.90
2022-09-06T11:20:32.935Z,44.77
2022-09-06T11:21:32.976Z,46.33
2022-09-06T11:22:32.940Z,47.75
2022-09-06T11:23:32.958Z,48.71
2022-09-06T11:24:32.952Z,49.72
2022-09-06T11:25:32.909Z,49.40
2022-09-06T11:26:32.900Z,49.16
2022-09-06T11:27:32.907Z,47.88
2022-09-06T11:28:32.891Z,48.07
2022-09-06T11:29:32.873Z,47.56
2022-09-06T11:30:32.877Z,47.26
2022-09-06T11:32:34.920Z,45.92
2022-09-06T11:33:32.879Z,46.31
2022-09-06T11:34:32.855Z,47.85
2022-09-06T11:35:32.832Z,47.14
2022-09-06T11:36:32.854Z,45.92
2022-09-06T11:37:32.900Z,46.53
2022-09-06T11:38:32.845Z,45.92
2022-09-06T11:40:34.811Z,47.44
2022-09-06T11:41:33.806Z,47.04
2022-09-06T11:42:32.826Z,47.12
2022-09-06T11:43:32.868Z,45.97
2022-09-06T11:44:32.821Z,45.55
2022-09-06T11:45:32.812Z,44.84
2022-09-06T11:46:32.793Z,44.62
2022-09-06T11:47:32.749Z,45.26
2022-09-06T11:48:32.758Z,45.79
2022-09-06T11:49:32.761Z,45.18
2022-09-06T11:50:32.841Z,44.87
2022-09-06T11:51:32.737Z,46.09
2022-09-06T11:52:32.770Z,45.60
2022-09-06T11:53:32.771Z,45.79
2022-09-06T11:54:32.745Z,45.18
2022-09-06T11:55:32.706Z,44.35
2022-09-06T11:56:32.718Z,43.74
2022-09-06T11:57:32.695Z,43.94
2022-09-06T11:58:33.708Z,44.26
2022-09-06T11:59:32.740Z,44.89
2022-09-06T12:00:32.739Z,46.13
2022-09-06T12:01:32.669Z,47.14
2022-09-06T12:02:32.805Z,46.53
2022-09-06T12:04:34.720Z,46.01
2022-09-06T12:05:32.726Z,45.20
2022-09-06T12:06:32.656Z,44.35
2022-09-06T12:07:32.696Z,44.69
2022-09-06T12:08:32.681Z,44.47
2022-09-06T12:09:32.706Z,44.35
2022-09-06T12:10:32.718Z,44.35
2022-09-06T12:11:32.614Z,44.04
2022-09-06T12:12:32.692Z,43.45
2022-09-06T12:13:32.662Z,43.31
2022-09-06T12:14:32.604Z,42.72
2022-09-06T12:15:32.627Z,42.55
2022-09-06T12:16:32.603Z,44.08
2022-09-06T12:17:32.592Z,44.55
2022-09-06T12:18:32.582Z,43.92
2022-09-06T12:19:32.559Z,42.90
2022-09-06T12:20:32.575Z,41.88
2022-09-06T12:21:32.553Z,41.17
2022-09-06T12:22:32.561Z,41.27
2022-09-06T12:23:32.545Z,41.60
2022-09-06T12:24:32.565Z,42.57
2022-09-06T12:25:32.516Z,43.57
2022-09-06T12:26:32.649Z,43.98
2022-09-06T12:27:32.573Z,44.77
2022-09-06T12:28:32.500Z,44.74
2022-09-06T12:29:32.536Z,44.49
2022-09-06T12:30:32.864Z,44.49
2022-09-06T12:31:32.781Z,44.67
2022-09-06T12:32:36.626Z,44.13
2022-09-06T12:33:33.545Z,43.04
2022-09-06T12:34:35.265Z,42.05
2022-09-06T12:36:35.498Z,42.03
2022-09-06T12:37:32.450Z,42.15
2022-09-06T12:38:32.449Z,41.64
2022-09-06T12:39:32.494Z,40.92
2022-09-06T12:40:32.505Z,40.82
2022-09-06T12:41:32.579Z,42.45
2022-09-06T12:42:32.426Z,41.96
2022-09-06T12:43:32.467Z,40.70
2022-09-06T12:44:32.395Z,40.68
2022-09-06T12:45:32.395Z,39.18
2022-09-06T12:46:32.426Z,38.67
2022-09-06T12:47:32.384Z,38.96
2022-09-06T12:48:32.473Z,39.08
2022-09-06T12:49:32.366Z,39.49
2022-09-06T12:50:33.263Z,40.19
2022-09-06T12:51:32.354Z,40.39
2022-09-06T12:52:32.417Z,40.09
2022-09-06T12:53:32.432Z,41.94
2022-09-06T12:54:32.378Z,43.76
2022-09-06T12:55:32.343Z,44.01
2022-09-06T12:56:32.335Z,44.95
2022-09-06T12:57:32.386Z,44.83
2022-09-06T12:58:32.359Z,44.76
2022-09-06T12:59:32.398Z,44.34
2022-09-06T13:00:32.379Z,43.80
2022-09-06T13:01:32.406Z,43.37
2022-09-06T13:02:32.427Z,43.18
2022-09-06T13:03:32.255Z,42.08
2022-09-06T13:04:32.304Z,41.05
2022-09-06T13:05:32.258Z,40.82
2022-09-06T13:06:32.258Z,39.70
2022-09-06T13:07:32.296Z,39.59
2022-09-06T13:08:32.233Z,38.71
2022-09-06T13:09:32.307Z,38.61
2022-09-06T13:10:32.245Z,38.61
2022-09-06T13:11:32.280Z,39.02
2022-09-06T13:12:32.246Z,38.61
2022-09-06T13:13:32.210Z,38.63
2022-09-06T13:14:32.285Z,39.12
2022-09-06T13:15:32.224Z,39.70
2022-09-06T13:16:32.221Z,38.53
2022-09-06T13:17:32.219Z,38.61
2022-09-06T13:18:32.288Z,38.82
2022-09-06T13:19:32.305Z,38.94
2022-09-06T13:20:32.204Z,39.45
2022-09-06T13:21:32.153Z,39.25
2022-09-06T13:22:32.205Z,39.84
2022-09-06T13:23:32.195Z,40.25
2022-09-06T13:24:32.197Z,40.66
2022-09-06T13:25:32.180Z,40.76
2022-09-06T13:26:32.262Z,41.17
2022-09-06T13:27:32.121Z,40.39
2022-09-06T13:28:32.089Z,40.39
2022-09-06T13:29:32.118Z,40.80
2022-09-06T13:30:32.096Z,41.98
2022-09-06T13:31:32.220Z,41.09
2022-09-06T13:32:32.106Z,41.39
2022-09-06T13:33:33.011Z,41.39
2022-09-06T13:34:32.114Z,40.90
2022-09-06T13:35:32.079Z,40.70
2022-09-06T13:36:32.141Z,41.49
2022-09-06T13:37:32.062Z,41.58
2022-09-06T13:38:32.078Z,40.92
2022-09-06T13:39:32.118Z,41.29
2022-09-06T13:40:32.073Z,40.41
2022-09-06T13:41:32.043Z,40.92
2022-09-06T13:42:32.080Z,42.04
2022-09-06T13:43:31.999Z,41.02
2022-09-06T13:44:31.994Z,40.61
2022-09-06T13:45:32.029Z,40.70
2022-09-06T13:46:32.071Z,40.74
2022-09-06T13:47:32.028Z,40.45
2022-09-06T13:48:31.992Z,40.74
2022-09-06T13:49:31.970Z,41.03
2022-09-06T13:50:31.971Z,41.63
2022-09-06T13:51:31.962Z,40.72